sensor_id;sensor_type;location;lat;lon;timestamp;P1;P2;P0
30342;PMS5003;17145;49.902;8.680;2023-11-21T00:00:00;24;22;
30342;PMS5003;17145;49.902;8.680;2023-11-21T00:02:27;22;21;
30342;PMS5003;17145;49.902;8.680;2023-11-21T00:04:55;34;26;
30342;PMS5003;17145;49.902;8.680;2023-11-21T00:07:22;22;21;
30342;PMS5003;17145;49.902;8.680;2023-11-21T00:09:50;24;22;
30342;PMS5003;17145;49.902;8.680;2023-11-21T00:12:18;32;24;
30342;PMS5003;17145;49.902;8.680;2023-11-21T00:14:46;26;23;
30342;PMS5003;17145;49.902;8.680;2023-11-21T00:17:14;23;22;
30342;PMS5003;17145;49.902;8.680;2023-11-21T00:19:41;22;21;
30342;PMS5003;17145;49.902;8.680;2023-11-21T00:22:08;29;21;
30342;PMS5003;17145;49.902;8.680;2023-11-21T00:24:36;24;23;
30342;PMS5003;17145;49.902;8.680;2023-11-21T00:27:03;29;22;
30342;PMS5003;17145;49.902;8.680;2023-11-21T00:29:31;23;21;
30342;PMS5003;17145;49.902;8.680;2023-11-21T00:31:58;22;22;
30342;PMS5003;17145;49.902;8.680;2023-11-21T00:34:26;29;21;
30342;PMS5003;17145;49.902;8.680;2023-11-21T00:36:54;26;23;
30342;PMS5003;17145;49.902;8.680;2023-11-21T00:39:21;28;23;
30342;PMS5003;17145;49.902;8.680;2023-11-21T00:41:49;26;23;
30342;PMS5003;17145;49.902;8.680;2023-11-21T00:44:17;23;21;
30342;PMS5003;17145;49.902;8.680;2023-11-21T00:46:45;31;24;
30342;PMS5003;17145;49.902;8.680;2023-11-21T00:49:12;29;22;
30342;PMS5003;17145;49.902;8.680;2023-11-21T00:51:40;24;24;
30342;PMS5003;17145;49.902;8.680;2023-11-21T00:54:07;23;22;
30342;PMS5003;17145;49.902;8.680;2023-11-21T00:56:35;23;22;
30342;PMS5003;17145;49.902;8.680;2023-11-21T00:59:02;25;17;
30342;PMS5003;17145;49.902;8.680;2023-11-21T01:01:29;29;19;
30342;PMS5003;17145;49.902;8.680;2023-11-21T01:03:57;18;17;
30342;PMS5003;17145;49.902;8.680;2023-11-21T01:06:24;19;17;
30342;PMS5003;17145;49.902;8.680;2023-11-21T01:08:52;21;18;
30342;PMS5003;17145;49.902;8.680;2023-11-21T01:11:20;19;18;
30342;PMS5003;17145;49.902;8.680;2023-11-21T01:13:47;33;23;
30342;PMS5003;17145;49.902;8.680;2023-11-21T01:16:15;21;19;
30342;PMS5003;17145;49.902;8.680;2023-11-21T01:18:42;16;16;
30342;PMS5003;17145;49.902;8.680;2023-11-21T01:21:10;19;17;
30342;PMS5003;17145;49.902;8.680;2023-11-21T01:23:38;19;18;
30342;PMS5003;17145;49.902;8.680;2023-11-21T01:26:06;16;14;
30342;PMS5003;17145;49.902;8.680;2023-11-21T01:28:33;18;18;
30342;PMS5003;17145;49.902;8.680;2023-11-21T01:31:00;17;16;
30342;PMS5003;17145;49.902;8.680;2023-11-21T01:33:28;14;14;
30342;PMS5003;17145;49.902;8.680;2023-11-21T01:35:55;14;13;
30342;PMS5003;17145;49.902;8.680;2023-11-21T01:38:23;16;14;
30342;PMS5003;17145;49.902;8.680;2023-11-21T01:40:50;14;13;
30342;PMS5003;17145;49.902;8.680;2023-11-21T01:43:17;16;14;
30342;PMS5003;17145;49.902;8.680;2023-11-21T01:45:45;14;11;
30342;PMS5003;17145;49.902;8.680;2023-11-21T01:48:12;15;15;
30342;PMS5003;17145;49.902;8.680;2023-11-21T01:50:40;17;16;
30342;PMS5003;17145;49.902;8.680;2023-11-21T01:53:10;16;16;
30342;PMS5003;17145;49.902;8.680;2023-11-21T01:55:39;14;14;
30342;PMS5003;17145;49.902;8.680;2023-11-21T01:58:07;14;14;
30342;PMS5003;17145;49.902;8.680;2023-11-21T02:00:37;13;13;
30342;PMS5003;17145;49.902;8.680;2023-11-21T02:03:04;16;13;
30342;PMS5003;17145;49.902;8.680;2023-11-21T02:05:32;12;12;
30342;PMS5003;17145;49.902;8.680;2023-11-21T02:07:59;14;12;
30342;PMS5003;17145;49.902;8.680;2023-11-21T02:10:27;11;11;
30342;PMS5003;17145;49.902;8.680;2023-11-21T02:12:55;11;9;
30342;PMS5003;17145;49.902;8.680;2023-11-21T02:15:22;11;9;
30342;PMS5003;17145;49.902;8.680;2023-11-21T02:17:50;8;8;
30342;PMS5003;17145;49.902;8.680;2023-11-21T02:20:18;11;9;
30342;PMS5003;17145;49.902;8.680;2023-11-21T02:22:48;9;9;
30342;PMS5003;17145;49.902;8.680;2023-11-21T02:25:17;8;8;
30342;PMS5003;17145;49.902;8.680;2023-11-21T02:27:44;9;9;
30342;PMS5003;17145;49.902;8.680;2023-11-21T02:30:12;8;8;
30342;PMS5003;17145;49.902;8.680;2023-11-21T02:32:39;8;8;
30342;PMS5003;17145;49.902;8.680;2023-11-21T02:35:07;13;9;
30342;PMS5003;17145;49.902;8.680;2023-11-21T02:37:35;11;8;
30342;PMS5003;17145;49.902;8.680;2023-11-21T02:40:02;7;7;
30342;PMS5003;17145;49.902;8.680;2023-11-21T02:42:30;8;6;
30342;PMS5003;17145;49.902;8.680;2023-11-21T02:44:58;8;8;
30342;PMS5003;17145;49.902;8.680;2023-11-21T02:47:25;16;11;
30342;PMS5003;17145;49.902;8.680;2023-11-21T02:49:53;8;8;
30342;PMS5003;17145;49.902;8.680;2023-11-21T02:52:20;7;7;
30342;PMS5003;17145;49.902;8.680;2023-11-21T02:54:48;8;8;
30342;PMS5003;17145;49.902;8.680;2023-11-21T02:57:15;11;8;
30342;PMS5003;17145;49.902;8.680;2023-11-21T02:59:42;6;6;
30342;PMS5003;17145;49.902;8.680;2023-11-21T03:02:10;7;7;
30342;PMS5003;17145;49.902;8.680;2023-11-21T03:04:37;8;8;
30342;PMS5003;17145;49.902;8.680;2023-11-21T03:07:05;11;9;
30342;PMS5003;17145;49.902;8.680;2023-11-21T03:09:32;8;7;
30342;PMS5003;17145;49.902;8.680;2023-11-21T03:11:59;7;7;
30342;PMS5003;17145;49.902;8.680;2023-11-21T03:14:27;8;7;
30342;PMS5003;17145;49.902;8.680;2023-11-21T03:16:55;7;7;
30342;PMS5003;17145;49.902;8.680;2023-11-21T03:19:22;11;8;
30342;PMS5003;17145;49.902;8.680;2023-11-21T03:21:49;7;7;
30342;PMS5003;17145;49.902;8.680;2023-11-21T03:24:17;7;7;
30342;PMS5003;17145;49.902;8.680;2023-11-21T03:26:44;7;6;
30342;PMS5003;17145;49.902;8.680;2023-11-21T03:29:12;6;6;
30342;PMS5003;17145;49.902;8.680;2023-11-21T03:31:40;8;7;
30342;PMS5003;17145;49.902;8.680;2023-11-21T03:34:09;9;7;
30342;PMS5003;17145;49.902;8.680;2023-11-21T03:36:41;8;8;
30342;PMS5003;17145;49.902;8.680;2023-11-21T03:39:10;9;8;
30342;PMS5003;17145;49.902;8.680;2023-11-21T03:41:37;8;8;
30342;PMS5003;17145;49.902;8.680;2023-11-21T03:44:05;7;7;
30342;PMS5003;17145;49.902;8.680;2023-11-21T03:46:32;8;7;
30342;PMS5003;17145;49.902;8.680;2023-11-21T03:49:00;7;7;
30342;PMS5003;17145;49.902;8.680;2023-11-21T03:51:27;6;6;
30342;PMS5003;17145;49.902;8.680;2023-11-21T03:53:55;7;7;
30342;PMS5003;17145;49.902;8.680;2023-11-21T03:56:22;6;6;
30342;PMS5003;17145;49.902;8.680;2023-11-21T03:58:49;9;7;
30342;PMS5003;17145;49.902;8.680;2023-11-21T04:01:20;7;6;
30342;PMS5003;17145;49.902;8.680;2023-11-21T04:03:48;7;7;
30342;PMS5003;17145;49.902;8.680;2023-11-21T04:06:16;6;6;
30342;PMS5003;17145;49.902;8.680;2023-11-21T04:08:44;4;4;
30342;PMS5003;17145;49.902;8.680;2023-11-21T04:11:12;6;6;
30342;PMS5003;17145;49.902;8.680;2023-11-21T04:13:39;6;6;
30342;PMS5003;17145;49.902;8.680;2023-11-21T04:16:07;6;4;
30342;PMS5003;17145;49.902;8.680;2023-11-21T04:18:35;6;6;
30342;PMS5003;17145;49.902;8.680;2023-11-21T04:21:03;6;6;
30342;PMS5003;17145;49.902;8.680;2023-11-21T04:23:31;6;6;
30342;PMS5003;17145;49.902;8.680;2023-11-21T04:25:59;7;6;
30342;PMS5003;17145;49.902;8.680;2023-11-21T04:28:27;7;6;
30342;PMS5003;17145;49.902;8.680;2023-11-21T04:30:55;6;6;
30342;PMS5003;17145;49.902;8.680;2023-11-21T04:33:23;6;6;
30342;PMS5003;17145;49.902;8.680;2023-11-21T04:35:50;6;6;
30342;PMS5003;17145;49.902;8.680;2023-11-21T04:38:18;7;6;
30342;PMS5003;17145;49.902;8.680;2023-11-21T04:40:45;6;6;
30342;PMS5003;17145;49.902;8.680;2023-11-21T04:43:12;6;6;
30342;PMS5003;17145;49.902;8.680;2023-11-21T04:45:40;8;7;
30342;PMS5003;17145;49.902;8.680;2023-11-21T04:48:07;6;6;
30342;PMS5003;17145;49.902;8.680;2023-11-21T04:50:35;7;6;
30342;PMS5003;17145;49.902;8.680;2023-11-21T04:53:02;6;6;
30342;PMS5003;17145;49.902;8.680;2023-11-21T04:55:29;7;6;
30342;PMS5003;17145;49.902;8.680;2023-11-21T04:57:57;6;6;
30342;PMS5003;17145;49.902;8.680;2023-11-21T05:00:25;6;6;
30342;PMS5003;17145;49.902;8.680;2023-11-21T05:02:52;8;7;
30342;PMS5003;17145;49.902;8.680;2023-11-21T05:05:19;7;6;
30342;PMS5003;17145;49.902;8.680;2023-11-21T05:07:47;7;7;
30342;PMS5003;17145;49.902;8.680;2023-11-21T05:10:14;6;6;
30342;PMS5003;17145;49.902;8.680;2023-11-21T05:12:42;7;6;
30342;PMS5003;17145;49.902;8.680;2023-11-21T05:15:10;6;6;
30342;PMS5003;17145;49.902;8.680;2023-11-21T05:17:41;7;6;
30342;PMS5003;17145;49.902;8.680;2023-11-21T05:20:08;6;6;
30342;PMS5003;17145;49.902;8.680;2023-11-21T05:22:37;8;7;
30342;PMS5003;17145;49.902;8.680;2023-11-21T05:25:05;7;7;
30342;PMS5003;17145;49.902;8.680;2023-11-21T05:27:33;8;7;
30342;PMS5003;17145;49.902;8.680;2023-11-21T05:30:01;5;5;
30342;PMS5003;17145;49.902;8.680;2023-11-21T05:32:29;6;6;
30342;PMS5003;17145;49.902;8.680;2023-11-21T05:34:56;6;6;
30342;PMS5003;17145;49.902;8.680;2023-11-21T05:37:24;12;8;
30342;PMS5003;17145;49.902;8.680;2023-11-21T05:39:52;5;5;
30342;PMS5003;17145;49.902;8.680;2023-11-21T05:42:20;6;5;
30342;PMS5003;17145;49.902;8.680;2023-11-21T05:44:48;7;6;
30342;PMS5003;17145;49.902;8.680;2023-11-21T05:47:15;6;5;
30342;PMS5003;17145;49.902;8.680;2023-11-21T05:49:43;5;5;
30342;PMS5003;17145;49.902;8.680;2023-11-21T05:52:10;8;6;
30342;PMS5003;17145;49.902;8.680;2023-11-21T05:54:38;8;7;
30342;PMS5003;17145;49.902;8.680;2023-11-21T05:57:05;6;6;
30342;PMS5003;17145;49.902;8.680;2023-11-21T05:59:32;6;6;
30342;PMS5003;17145;49.902;8.680;2023-11-21T06:02:00;5;5;
30342;PMS5003;17145;49.902;8.680;2023-11-21T06:04:28;7;7;
30342;PMS5003;17145;49.902;8.680;2023-11-21T06:06:55;6;5;
30342;PMS5003;17145;49.902;8.680;2023-11-21T06:09:23;6;6;
30342;PMS5003;17145;49.902;8.680;2023-11-21T06:11:50;6;6;
30342;PMS5003;17145;49.902;8.680;2023-11-21T06:14:17;6;6;
30342;PMS5003;17145;49.902;8.680;2023-11-21T06:16:45;7;6;
30342;PMS5003;17145;49.902;8.680;2023-11-21T06:19:12;8;7;
30342;PMS5003;17145;49.902;8.680;2023-11-21T06:21:39;8;7;
30342;PMS5003;17145;49.902;8.680;2023-11-21T06:24:07;6;6;
30342;PMS5003;17145;49.902;8.680;2023-11-21T06:26:34;7;7;
30342;PMS5003;17145;49.902;8.680;2023-11-21T06:29:02;7;7;
30342;PMS5003;17145;49.902;8.680;2023-11-21T06:31:29;6;5;
30342;PMS5003;17145;49.902;8.680;2023-11-21T06:33:57;5;5;
30342;PMS5003;17145;49.902;8.680;2023-11-21T06:36:24;6;4;
30342;PMS5003;17145;49.902;8.680;2023-11-21T06:38:52;6;6;
30342;PMS5003;17145;49.902;8.680;2023-11-21T06:41:19;7;6;
30342;PMS5003;17145;49.902;8.680;2023-11-21T06:43:46;7;7;
30342;PMS5003;17145;49.902;8.680;2023-11-21T06:46:14;3;3;
30342;PMS5003;17145;49.902;8.680;2023-11-21T06:48:42;7;6;
30342;PMS5003;17145;49.902;8.680;2023-11-21T06:51:09;6;5;
30342;PMS5003;17145;49.902;8.680;2023-11-21T06:53:37;3;3;
30342;PMS5003;17145;49.902;8.680;2023-11-21T06:56:05;5;5;
30342;PMS5003;17145;49.902;8.680;2023-11-21T06:58:37;5;5;
30342;PMS5003;17145;49.902;8.680;2023-11-21T07:01:05;5;5;
30342;PMS5003;17145;49.902;8.680;2023-11-21T07:03:33;5;5;
30342;PMS5003;17145;49.902;8.680;2023-11-21T07:06:00;7;6;
30342;PMS5003;17145;49.902;8.680;2023-11-21T07:08:27;6;5;
30342;PMS5003;17145;49.902;8.680;2023-11-21T07:10:55;3;3;
30342;PMS5003;17145;49.902;8.680;2023-11-21T07:13:22;5;5;
30342;PMS5003;17145;49.902;8.680;2023-11-21T07:15:50;3;3;
30342;PMS5003;17145;49.902;8.680;2023-11-21T07:18:17;3;3;
30342;PMS5003;17145;49.902;8.680;2023-11-21T07:20:45;4;4;
30342;PMS5003;17145;49.902;8.680;2023-11-21T07:23:12;5;5;
30342;PMS5003;17145;49.902;8.680;2023-11-21T07:25:39;4;4;
30342;PMS5003;17145;49.902;8.680;2023-11-21T07:28:07;3;3;
30342;PMS5003;17145;49.902;8.680;2023-11-21T07:30:35;3;3;
30342;PMS5003;17145;49.902;8.680;2023-11-21T07:33:03;5;5;
30342;PMS5003;17145;49.902;8.680;2023-11-21T07:35:30;5;5;
30342;PMS5003;17145;49.902;8.680;2023-11-21T07:37:57;4;4;
30342;PMS5003;17145;49.902;8.680;2023-11-21T07:40:25;3;3;
30342;PMS5003;17145;49.902;8.680;2023-11-21T07:42:53;6;6;
30342;PMS5003;17145;49.902;8.680;2023-11-21T07:45:20;4;3;
30342;PMS5003;17145;49.902;8.680;2023-11-21T07:47:47;3;3;
30342;PMS5003;17145;49.902;8.680;2023-11-21T07:50:15;4;3;
30342;PMS5003;17145;49.902;8.680;2023-11-21T07:52:42;4;4;
30342;PMS5003;17145;49.902;8.680;2023-11-21T07:55:10;4;4;
30342;PMS5003;17145;49.902;8.680;2023-11-21T07:57:38;6;5;
30342;PMS5003;17145;49.902;8.680;2023-11-21T08:00:06;6;5;
30342;PMS5003;17145;49.902;8.680;2023-11-21T08:02:34;6;6;
30342;PMS5003;17145;49.902;8.680;2023-11-21T08:05:02;5;5;
30342;PMS5003;17145;49.902;8.680;2023-11-21T08:07:29;6;6;
30342;PMS5003;17145;49.902;8.680;2023-11-21T08:09:57;7;6;
30342;PMS5003;17145;49.902;8.680;2023-11-21T08:12:25;5;3;
30342;PMS5003;17145;49.902;8.680;2023-11-21T08:14:52;6;4;
30342;PMS5003;17145;49.902;8.680;2023-11-21T08:17:19;7;6;
30342;PMS5003;17145;49.902;8.680;2023-11-21T08:19:47;4;4;
30342;PMS5003;17145;49.902;8.680;2023-11-21T08:22:14;6;5;
30342;PMS5003;17145;49.902;8.680;2023-11-21T08:24:41;7;4;
30342;PMS5003;17145;49.902;8.680;2023-11-21T08:27:09;4;4;
30342;PMS5003;17145;49.902;8.680;2023-11-21T08:29:37;7;6;
30342;PMS5003;17145;49.902;8.680;2023-11-21T08:32:04;7;7;
30342;PMS5003;17145;49.902;8.680;2023-11-21T08:34:32;7;7;
30342;PMS5003;17145;49.902;8.680;2023-11-21T08:36:59;7;6;
30342;PMS5003;17145;49.902;8.680;2023-11-21T08:39:27;7;7;
30342;PMS5003;17145;49.902;8.680;2023-11-21T08:41:54;6;6;
30342;PMS5003;17145;49.902;8.680;2023-11-21T08:44:21;7;7;
30342;PMS5003;17145;49.902;8.680;2023-11-21T08:46:49;7;7;
30342;PMS5003;17145;49.902;8.680;2023-11-21T08:49:17;7;7;
30342;PMS5003;17145;49.902;8.680;2023-11-21T08:51:44;8;8;
30342;PMS5003;17145;49.902;8.680;2023-11-21T08:54:12;8;8;
30342;PMS5003;17145;49.902;8.680;2023-11-21T08:56:39;7;7;
30342;PMS5003;17145;49.902;8.680;2023-11-21T08:59:06;8;7;
30342;PMS5003;17145;49.902;8.680;2023-11-21T09:01:34;7;7;
30342;PMS5003;17145;49.902;8.680;2023-11-21T09:04:01;7;7;
30342;PMS5003;17145;49.902;8.680;2023-11-21T09:06:29;8;7;
30342;PMS5003;17145;49.902;8.680;2023-11-21T09:08:57;9;9;
30342;PMS5003;17145;49.902;8.680;2023-11-21T09:11:24;7;7;
30342;PMS5003;17145;49.902;8.680;2023-11-21T09:13:51;11;10;
30342;PMS5003;17145;49.902;8.680;2023-11-21T09:16:19;10;8;
30342;PMS5003;17145;49.902;8.680;2023-11-21T09:18:46;11;10;
30342;PMS5003;17145;49.902;8.680;2023-11-21T09:21:14;8;7;
30342;PMS5003;17145;49.902;8.680;2023-11-21T09:23:43;13;11;
30342;PMS5003;17145;49.902;8.680;2023-11-21T09:26:11;10;10;
30342;PMS5003;17145;49.902;8.680;2023-11-21T09:28:39;11;11;
30342;PMS5003;17145;49.902;8.680;2023-11-21T09:31:06;12;11;
30342;PMS5003;17145;49.902;8.680;2023-11-21T09:33:33;10;10;
30342;PMS5003;17145;49.902;8.680;2023-11-21T09:36:01;10;8;
30342;PMS5003;17145;49.902;8.680;2023-11-21T09:38:29;11;10;
30342;PMS5003;17145;49.902;8.680;2023-11-21T09:40:56;12;12;
30342;PMS5003;17145;49.902;8.680;2023-11-21T09:43:24;12;12;
30342;PMS5003;17145;49.902;8.680;2023-11-21T09:45:56;13;13;
30342;PMS5003;17145;49.902;8.680;2023-11-21T09:48:27;12;12;
30342;PMS5003;17145;49.902;8.680;2023-11-21T09:50:57;13;13;
30342;PMS5003;17145;49.902;8.680;2023-11-21T09:53:26;12;12;
30342;PMS5003;17145;49.902;8.680;2023-11-21T09:55:58;12;11;
30342;PMS5003;17145;49.902;8.680;2023-11-21T09:58:25;13;12;
30342;PMS5003;17145;49.902;8.680;2023-11-21T10:00:55;16;13;
30342;PMS5003;17145;49.902;8.680;2023-11-21T10:03:26;15;15;
30342;PMS5003;17145;49.902;8.680;2023-11-21T10:05:53;11;10;
30342;PMS5003;17145;49.902;8.680;2023-11-21T10:08:23;11;11;
30342;PMS5003;17145;49.902;8.680;2023-11-21T10:10:53;15;13;
30342;PMS5003;17145;49.902;8.680;2023-11-21T10:13:21;15;15;
30342;PMS5003;17145;49.902;8.680;2023-11-21T10:15:49;16;13;
30342;PMS5003;17145;49.902;8.680;2023-11-21T10:18:18;13;13;
30342;PMS5003;17145;49.902;8.680;2023-11-21T10:20:47;15;13;
30342;PMS5003;17145;49.902;8.680;2023-11-21T10:23:15;15;12;
30342;PMS5003;17145;49.902;8.680;2023-11-21T10:25:42;15;13;
30342;PMS5003;17145;49.902;8.680;2023-11-21T10:28:10;12;12;
30342;PMS5003;17145;49.902;8.680;2023-11-21T10:30:38;11;11;
30342;PMS5003;17145;49.902;8.680;2023-11-21T10:33:06;14;13;
30342;PMS5003;17145;49.902;8.680;2023-11-21T10:35:39;12;11;
30342;PMS5003;17145;49.902;8.680;2023-11-21T10:38:10;12;12;
30342;PMS5003;17145;49.902;8.680;2023-11-21T10:40:37;16;16;
30342;PMS5003;17145;49.902;8.680;2023-11-21T10:43:06;13;11;
30342;PMS5003;17145;49.902;8.680;2023-11-21T10:45:33;11;11;
30342;PMS5003;17145;49.902;8.680;2023-11-21T10:48:01;14;14;
30342;PMS5003;17145;49.902;8.680;2023-11-21T10:50:32;12;12;
30342;PMS5003;17145;49.902;8.680;2023-11-21T10:53:01;14;13;
30342;PMS5003;17145;49.902;8.680;2023-11-21T10:55:29;14;12;
30342;PMS5003;17145;49.902;8.680;2023-11-21T10:57:58;12;12;
30342;PMS5003;17145;49.902;8.680;2023-11-21T11:00:27;13;13;
30342;PMS5003;17145;49.902;8.680;2023-11-21T11:02:56;12;12;
30342;PMS5003;17145;49.902;8.680;2023-11-21T11:05:23;11;11;
30342;PMS5003;17145;49.902;8.680;2023-11-21T11:07:55;13;12;
30342;PMS5003;17145;49.902;8.680;2023-11-21T11:10:25;13;12;
30342;PMS5003;17145;49.902;8.680;2023-11-21T11:12:54;19;13;
30342;PMS5003;17145;49.902;8.680;2023-11-21T11:15:22;13;11;
30342;PMS5003;17145;49.902;8.680;2023-11-21T11:17:50;12;11;
30342;PMS5003;17145;49.902;8.680;2023-11-21T11:20:19;12;11;
30342;PMS5003;17145;49.902;8.680;2023-11-21T11:22:50;11;11;
30342;PMS5003;17145;49.902;8.680;2023-11-21T11:25:32;12;12;
30342;PMS5003;17145;49.902;8.680;2023-11-21T11:28:11;12;11;
30342;PMS5003;17145;49.902;8.680;2023-11-21T11:30:45;9;8;
30342;PMS5003;17145;49.902;8.680;2023-11-21T11:33:24;9;9;
30342;PMS5003;17145;49.902;8.680;2023-11-21T11:36:00;7;7;
30342;PMS5003;17145;49.902;8.680;2023-11-21T11:38:33;8;8;
30342;PMS5003;17145;49.902;8.680;2023-11-21T11:41:01;11;11;
30342;PMS5003;17145;49.902;8.680;2023-11-21T11:43:30;12;11;
30342;PMS5003;17145;49.902;8.680;2023-11-21T11:45:58;11;9;
30342;PMS5003;17145;49.902;8.680;2023-11-21T11:48:26;11;9;
30342;PMS5003;17145;49.902;8.680;2023-11-21T11:53:35;8;8;
30342;PMS5003;17145;49.902;8.680;2023-11-21T11:58:47;7;7;
30342;PMS5003;17145;49.902;8.680;2023-11-21T12:01:16;7;6;
30342;PMS5003;17145;49.902;8.680;2023-11-21T12:03:47;8;7;
30342;PMS5003;17145;49.902;8.680;2023-11-21T12:06:33;8;8;
30342;PMS5003;17145;49.902;8.680;2023-11-21T12:09:01;7;7;
30342;PMS5003;17145;49.902;8.680;2023-11-21T12:11:30;9;8;
30342;PMS5003;17145;49.902;8.680;2023-11-21T12:13:58;8;7;
30342;PMS5003;17145;49.902;8.680;2023-11-21T12:16:26;7;7;
30342;PMS5003;17145;49.902;8.680;2023-11-21T12:18:53;9;7;
30342;PMS5003;17145;49.902;8.680;2023-11-21T12:21:22;9;8;
30342;PMS5003;17145;49.902;8.680;2023-11-21T12:23:50;8;8;
30342;PMS5003;17145;49.902;8.680;2023-11-21T12:26:18;11;9;
30342;PMS5003;17145;49.902;8.680;2023-11-21T12:31:19;11;9;
30342;PMS5003;17145;49.902;8.680;2023-11-21T12:33:46;13;11;
30342;PMS5003;17145;49.902;8.680;2023-11-21T12:36:14;12;9;
30342;PMS5003;17145;49.902;8.680;2023-11-21T12:38:42;12;11;
30342;PMS5003;17145;49.902;8.680;2023-11-21T12:41:10;9;8;
30342;PMS5003;17145;49.902;8.680;2023-11-21T12:43:38;8;8;
30342;PMS5003;17145;49.902;8.680;2023-11-21T12:46:06;11;9;
30342;PMS5003;17145;49.902;8.680;2023-11-21T12:48:36;9;9;
30342;PMS5003;17145;49.902;8.680;2023-11-21T12:51:05;8;8;
30342;PMS5003;17145;49.902;8.680;2023-11-21T12:53:34;11;9;
30342;PMS5003;17145;49.902;8.680;2023-11-21T12:56:05;11;9;
30342;PMS5003;17145;49.902;8.680;2023-11-21T12:58:34;9;9;
30342;PMS5003;17145;49.902;8.680;2023-11-21T13:01:02;12;11;
30342;PMS5003;17145;49.902;8.680;2023-11-21T13:03:30;12;11;
30342;PMS5003;17145;49.902;8.680;2023-11-21T13:05:57;12;11;
30342;PMS5003;17145;49.902;8.680;2023-11-21T13:08:25;12;12;
30342;PMS5003;17145;49.902;8.680;2023-11-21T13:10:54;11;11;
30342;PMS5003;17145;49.902;8.680;2023-11-21T13:13:23;12;12;
30342;PMS5003;17145;49.902;8.680;2023-11-21T13:15:51;9;9;
30342;PMS5003;17145;49.902;8.680;2023-11-21T13:18:20;12;11;
30342;PMS5003;17145;49.902;8.680;2023-11-21T13:20:48;12;11;
30342;PMS5003;17145;49.902;8.680;2023-11-21T13:23:16;9;9;
30342;PMS5003;17145;49.902;8.680;2023-11-21T13:25:43;9;7;
30342;PMS5003;17145;49.902;8.680;2023-11-21T13:28:11;8;8;
30342;PMS5003;17145;49.902;8.680;2023-11-21T13:30:39;9;8;
30342;PMS5003;17145;49.902;8.680;2023-11-21T13:33:07;7;7;
30342;PMS5003;17145;49.902;8.680;2023-11-21T13:35:35;6;6;
30342;PMS5003;17145;49.902;8.680;2023-11-21T13:38:04;8;8;
30342;PMS5003;17145;49.902;8.680;2023-11-21T13:40:33;7;7;
30342;PMS5003;17145;49.902;8.680;2023-11-21T13:43:01;11;9;
30342;PMS5003;17145;49.902;8.680;2023-11-21T13:45:29;6;6;
30342;PMS5003;17145;49.902;8.680;2023-11-21T13:47:56;9;8;
30342;PMS5003;17145;49.902;8.680;2023-11-21T13:50:24;7;6;
30342;PMS5003;17145;49.902;8.680;2023-11-21T13:52:52;7;7;
30342;PMS5003;17145;49.902;8.680;2023-11-21T13:55:20;12;9;
30342;PMS5003;17145;49.902;8.680;2023-11-21T13:57:47;8;7;
30342;PMS5003;17145;49.902;8.680;2023-11-21T14:00:15;7;7;
30342;PMS5003;17145;49.902;8.680;2023-11-21T14:02:43;8;7;
30342;PMS5003;17145;49.902;8.680;2023-11-21T14:05:11;8;8;
30342;PMS5003;17145;49.902;8.680;2023-11-21T14:07:39;9;8;
30342;PMS5003;17145;49.902;8.680;2023-11-21T14:10:06;7;7;
30342;PMS5003;17145;49.902;8.680;2023-11-21T14:12:34;9;8;
30342;PMS5003;17145;49.902;8.680;2023-11-21T14:15:02;7;7;
30342;PMS5003;17145;49.902;8.680;2023-11-21T14:17:29;7;7;
30342;PMS5003;17145;49.902;8.680;2023-11-21T14:19:57;7;6;
30342;PMS5003;17145;49.902;8.680;2023-11-21T14:22:24;6;6;
30342;PMS5003;17145;49.902;8.680;2023-11-21T14:24:52;7;7;
30342;PMS5003;17145;49.902;8.680;2023-11-21T14:27:19;7;7;
30342;PMS5003;17145;49.902;8.680;2023-11-21T14:29:47;8;8;
30342;PMS5003;17145;49.902;8.680;2023-11-21T14:32:14;7;6;
30342;PMS5003;17145;49.902;8.680;2023-11-21T14:34:42;6;6;
30342;PMS5003;17145;49.902;8.680;2023-11-21T14:37:09;4;4;
30342;PMS5003;17145;49.902;8.680;2023-11-21T14:39:37;6;6;
30342;PMS5003;17145;49.902;8.680;2023-11-21T14:42:04;6;6;
30342;PMS5003;17145;49.902;8.680;2023-11-21T14:44:32;3;3;
30342;PMS5003;17145;49.902;8.680;2023-11-21T14:46:59;4;4;
30342;PMS5003;17145;49.902;8.680;2023-11-21T14:49:26;4;3;
30342;PMS5003;17145;49.902;8.680;2023-11-21T14:51:54;3;3;
30342;PMS5003;17145;49.902;8.680;2023-11-21T14:54:21;3;3;
30342;PMS5003;17145;49.902;8.680;2023-11-21T14:56:49;6;6;
30342;PMS5003;17145;49.902;8.680;2023-11-21T14:59:16;3;3;
30342;PMS5003;17145;49.902;8.680;2023-11-21T15:01:44;3;3;
30342;PMS5003;17145;49.902;8.680;2023-11-21T15:04:11;3;3;
30342;PMS5003;17145;49.902;8.680;2023-11-21T15:06:39;3;3;
30342;PMS5003;17145;49.902;8.680;2023-11-21T15:09:06;3;3;
30342;PMS5003;17145;49.902;8.680;2023-11-21T15:11:33;6;3;
30342;PMS5003;17145;49.902;8.680;2023-11-21T15:14:01;3;3;
30342;PMS5003;17145;49.902;8.680;2023-11-21T15:16:29;2;2;
30342;PMS5003;17145;49.902;8.680;2023-11-21T15:18:56;2;2;
30342;PMS5003;17145;49.902;8.680;2023-11-21T15:21:24;2;2;
30342;PMS5003;17145;49.902;8.680;2023-11-21T15:23:51;3;3;
30342;PMS5003;17145;49.902;8.680;2023-11-21T15:26:19;2;2;
30342;PMS5003;17145;49.902;8.680;2023-11-21T15:28:46;3;3;
30342;PMS5003;17145;49.902;8.680;2023-11-21T15:31:13;3;3;
30342;PMS5003;17145;49.902;8.680;2023-11-21T15:33:41;3;3;
30342;PMS5003;17145;49.902;8.680;2023-11-21T15:36:09;2;2;
30342;PMS5003;17145;49.902;8.680;2023-11-21T15:38:36;2;2;
30342;PMS5003;17145;49.902;8.680;2023-11-21T15:41:04;4;3;
30342;PMS5003;17145;49.902;8.680;2023-11-21T15:43:31;4;4;
30342;PMS5003;17145;49.902;8.680;2023-11-21T15:45:58;4;4;
30342;PMS5003;17145;49.902;8.680;2023-11-21T15:48:26;3;3;
30342;PMS5003;17145;49.902;8.680;2023-11-21T15:50:53;4;4;
30342;PMS5003;17145;49.902;8.680;2023-11-21T15:53:21;3;3;
30342;PMS5003;17145;49.902;8.680;2023-11-21T15:55:48;4;4;
30342;PMS5003;17145;49.902;8.680;2023-11-21T15:58:15;6;6;
30342;PMS5003;17145;49.902;8.680;2023-11-21T16:00:43;4;4;
30342;PMS5003;17145;49.902;8.680;2023-11-21T16:03:10;3;3;
30342;PMS5003;17145;49.902;8.680;2023-11-21T16:05:38;3;3;
30342;PMS5003;17145;49.902;8.680;2023-11-21T16:08:07;4;4;
30342;PMS5003;17145;49.902;8.680;2023-11-21T16:10:34;3;3;
30342;PMS5003;17145;49.902;8.680;2023-11-21T16:13:01;3;3;
30342;PMS5003;17145;49.902;8.680;2023-11-21T16:15:29;3;3;
30342;PMS5003;17145;49.902;8.680;2023-11-21T16:17:56;4;4;
30342;PMS5003;17145;49.902;8.680;2023-11-21T16:23:06;6;4;
30342;PMS5003;17145;49.902;8.680;2023-11-21T16:25:34;4;4;
30342;PMS5003;17145;49.902;8.680;2023-11-21T16:28:01;3;3;
30342;PMS5003;17145;49.902;8.680;2023-11-21T16:30:29;4;4;
30342;PMS5003;17145;49.902;8.680;2023-11-21T16:32:57;7;7;
30342;PMS5003;17145;49.902;8.680;2023-11-21T16:35:24;8;7;
30342;PMS5003;17145;49.902;8.680;2023-11-21T16:37:52;3;3;
30342;PMS5003;17145;49.902;8.680;2023-11-21T16:40:19;4;4;
30342;PMS5003;17145;49.902;8.680;2023-11-21T16:42:46;8;8;
30342;PMS5003;17145;49.902;8.680;2023-11-21T16:45:14;7;7;
30342;PMS5003;17145;49.902;8.680;2023-11-21T16:47:42;8;8;
30342;PMS5003;17145;49.902;8.680;2023-11-21T16:50:09;4;4;
30342;PMS5003;17145;49.902;8.680;2023-11-21T16:52:38;4;4;
30342;PMS5003;17145;49.902;8.680;2023-11-21T16:55:08;7;6;